createdAt,value
2019-03-03T00:02:08.787Z,9.80
2019-03-03T00:04:37.711Z,9.80
2019-03-03T00:07:06.771Z,9.80
2019-03-03T00:09:35.612Z,9.80
2019-03-03T00:12:04.636Z,9.70
2019-03-03T00:14:33.443Z,9.70
2019-03-03T00:17:02.294Z,9.70
2019-03-03T00:19:31.162Z,9.70
2019-03-03T00:22:00.596Z,9.70
2019-03-03T00:24:29.840Z,9.80
2019-03-03T00:26:58.632Z,9.80
2019-03-03T00:29:27.518Z,9.80
2019-03-03T00:31:56.554Z,9.80
2019-03-03T00:34:25.879Z,9.80
2019-03-03T00:37:12.408Z,9.80
2019-03-03T00:40:06.468Z,9.80
2019-03-03T00:42:45.967Z,9.80
2019-03-03T00:45:25.371Z,9.90
2019-03-03T00:48:05.127Z,9.90
2019-03-03T00:50:40.742Z,9.90
2019-03-03T00:53:35.062Z,9.90
2019-03-03T00:56:23.227Z,9.90
2019-03-03T00:59:11.381Z,9.90
2019-03-03T01:01:50.619Z,9.90
2019-03-03T01:04:25.329Z,9.90
2019-03-03T01:07:12.063Z,9.90
2019-03-03T01:09:58.359Z,9.90
2019-03-03T01:12:47.623Z,9.90
2019-03-03T01:15:41.655Z,9.90
2019-03-03T01:18:19.024Z,9.90
2019-03-03T01:20:56.353Z,9.90
2019-03-03T01:23:42.992Z,9.90
2019-03-03T01:26:12.103Z,9.80
2019-03-03T01:28:41.499Z,9.80
2019-03-03T01:31:10.688Z,9.80
2019-03-03T01:33:39.503Z,9.80
2019-03-03T01:36:08.468Z,9.90
2019-03-03T01:38:37.293Z,9.80
2019-03-03T01:41:06.478Z,9.80
2019-03-03T01:43:35.363Z,9.80
2019-03-03T01:46:04.392Z,9.80
2019-03-03T01:48:33.634Z,9.90
2019-03-03T01:51:02.518Z,9.80
2019-03-03T01:53:31.377Z,9.90
2019-03-03T01:56:00.482Z,9.90
2019-03-03T01:58:29.277Z,9.90
2019-03-03T02:00:58.177Z,9.90
2019-03-03T02:03:27.124Z,9.90
2019-03-03T02:05:55.925Z,9.90
2019-03-03T02:08:24.739Z,9.90
2019-03-03T02:10:53.684Z,9.90
2019-03-03T02:13:22.940Z,9.90
2019-03-03T02:15:52.018Z,9.90
2019-03-03T02:18:20.843Z,9.90
2019-03-03T02:20:49.868Z,9.90
2019-03-03T02:23:18.730Z,9.90
2019-03-03T02:25:47.520Z,9.90
2019-03-03T02:28:16.680Z,9.90
2019-03-03T02:30:45.638Z,9.90
2019-03-03T02:33:14.506Z,9.90
2019-03-03T02:35:43.375Z,9.90
2019-03-03T02:38:12.250Z,9.90
2019-03-03T02:40:41.600Z,9.90
2019-03-03T02:43:10.484Z,9.90
2019-03-03T02:45:39.325Z,9.90
2019-03-03T02:48:08.357Z,10.00
2019-03-03T02:50:37.212Z,9.90
2019-03-03T02:53:06.118Z,9.90
2019-03-03T02:55:35.198Z,9.90
2019-03-03T02:58:04.174Z,9.90
2019-03-03T03:00:34.741Z,9.90
2019-03-03T03:03:05.419Z,9.90
2019-03-03T03:05:52.173Z,9.90
2019-03-03T03:08:31.503Z,9.90
2019-03-03T03:11:19.636Z,9.90
2019-03-03T03:14:06.953Z,9.90
2019-03-03T03:16:53.441Z,9.80
2019-03-03T03:19:42.318Z,9.80
2019-03-03T03:22:30.172Z,9.80
2019-03-03T03:25:16.195Z,9.70
2019-03-03T03:27:53.591Z,9.70
2019-03-03T03:30:53.736Z,9.70
2019-03-03T03:33:44.140Z,9.80
2019-03-03T03:36:25.103Z,9.80
2019-03-03T03:39:07.149Z,9.80
2019-03-03T03:41:44.572Z,9.80
2019-03-03T03:44:23.527Z,9.80
2019-03-03T03:47:09.694Z,9.80
2019-03-03T03:50:06.561Z,9.80
2019-03-03T03:52:52.998Z,9.80
2019-03-03T03:55:44.238Z,9.80
2019-03-03T03:58:24.958Z,9.80
2019-03-03T04:01:05.029Z,9.80
2019-03-03T04:03:47.887Z,9.80
2019-03-03T04:06:32.309Z,9.80
2019-03-03T04:09:15.451Z,9.80
2019-03-03T04:11:52.871Z,9.80
2019-03-03T04:14:32.286Z,9.80
2019-03-03T04:17:10.091Z,9.80
2019-03-03T04:19:51.342Z,9.80
2019-03-03T04:22:48.529Z,9.80
2019-03-03T04:25:34.796Z,9.80
2019-03-03T04:28:35.110Z,9.80
2019-03-03T04:31:21.856Z,9.80
2019-03-03T04:34:03.949Z,9.80
2019-03-03T04:36:50.363Z,9.80
2019-03-03T04:39:24.249Z,9.80
2019-03-03T04:42:12.116Z,9.90
2019-03-03T04:45:02.845Z,9.90
2019-03-03T04:47:49.315Z,9.90
2019-03-03T04:50:36.407Z,9.90
2019-03-03T04:53:22.843Z,9.90
2019-03-03T04:56:26.211Z,9.90
2019-03-03T04:59:02.033Z,9.90
2019-03-03T05:01:45.239Z,9.80
2019-03-03T05:04:23.709Z,9.80
2019-03-03T05:07:01.580Z,9.90
2019-03-03T05:09:40.503Z,9.90
2019-03-03T05:12:44.487Z,9.80
2019-03-03T05:15:33.654Z,9.80
2019-03-03T05:18:11.124Z,9.80
2019-03-03T05:20:52.627Z,9.70
2019-03-03T05:23:21.495Z,9.70
2019-03-03T05:25:50.247Z,9.70
2019-03-03T05:28:19.186Z,9.70
2019-03-03T05:30:48.110Z,9.70
2019-03-03T05:33:16.906Z,9.70
2019-03-03T05:35:45.843Z,9.70
2019-03-03T05:38:14.671Z,9.70
2019-03-03T05:40:43.458Z,9.70
2019-03-03T05:43:12.624Z,9.70
2019-03-03T05:45:41.439Z,9.70
2019-03-03T05:48:10.742Z,9.70
2019-03-03T05:50:39.607Z,9.60
2019-03-03T05:53:08.806Z,9.70
2019-03-03T05:55:37.878Z,9.60
2019-03-03T05:58:06.837Z,9.60
2019-03-03T06:00:35.931Z,9.70
2019-03-03T06:03:06.163Z,9.70
2019-03-03T06:05:34.979Z,9.70
2019-03-03T06:08:03.832Z,9.70
2019-03-03T06:10:32.849Z,9.70
2019-03-03T06:13:01.963Z,9.70
2019-03-03T06:15:30.952Z,9.70
2019-03-03T06:17:59.985Z,9.70
2019-03-03T06:20:28.759Z,9.70
2019-03-03T06:22:59.626Z,9.70
2019-03-03T06:25:29.695Z,9.70
2019-03-03T06:28:00.294Z,9.70
2019-03-03T06:30:29.419Z,9.70
2019-03-03T06:32:58.313Z,9.80
2019-03-03T06:35:28.958Z,9.70
2019-03-03T06:37:57.997Z,9.80
2019-03-03T06:40:27.355Z,9.80
2019-03-03T06:43:00.362Z,9.80
2019-03-03T06:45:29.155Z,9.70
2019-03-03T06:47:58.171Z,9.80
2019-03-03T06:50:27.023Z,9.80
2019-03-03T06:52:55.848Z,9.80
2019-03-03T06:55:27.823Z,9.80
2019-03-03T06:57:56.665Z,9.90
2019-03-03T07:00:25.544Z,9.90
2019-03-03T07:02:54.523Z,9.90
2019-03-03T07:05:23.555Z,9.90
2019-03-03T07:07:52.354Z,9.90
2019-03-03T07:10:24.756Z,9.90
2019-03-03T07:12:53.785Z,9.90
2019-03-03T07:15:22.690Z,9.90
2019-03-03T07:17:51.524Z,9.90
2019-03-03T07:20:20.934Z,9.90
2019-03-03T07:22:50.129Z,9.90
2019-03-03T07:25:19.080Z,9.90
2019-03-03T07:27:47.983Z,10.00
2019-03-03T07:30:21.523Z,10.00
2019-03-03T07:33:09.566Z,10.00
2019-03-03T07:35:39.362Z,10.00
2019-03-03T07:38:21.957Z,10.00
2019-03-03T07:40:56.422Z,10.00
2019-03-03T07:43:32.894Z,10.00
2019-03-03T07:46:05.658Z,10.00
2019-03-03T07:48:40.316Z,10.00
2019-03-03T07:51:14.492Z,10.10
2019-03-03T07:53:43.354Z,10.10
2019-03-03T07:56:21.017Z,10.10
2019-03-03T07:59:10.472Z,10.10
2019-03-03T08:01:47.015Z,10.10
2019-03-03T08:04:20.042Z,10.00
2019-03-03T08:06:50.175Z,10.10
2019-03-03T08:09:19.634Z,10.10
2019-03-03T08:11:48.522Z,10.10
2019-03-03T08:14:17.387Z,10.10
2019-03-03T08:16:46.518Z,10.10
2019-03-03T08:19:15.408Z,10.20
2019-03-03T08:21:54.911Z,10.20
2019-03-03T08:24:23.766Z,10.20
2019-03-03T08:26:52.931Z,10.20
2019-03-03T08:29:22.122Z,10.30
2019-03-03T08:31:51.170Z,10.30
2019-03-03T08:34:19.978Z,10.30
2019-03-03T08:36:49.320Z,10.30
2019-03-03T08:39:18.695Z,10.30
2019-03-03T08:41:51.015Z,10.30
2019-03-03T08:44:35.349Z,10.30
2019-03-03T08:47:12.454Z,10.30
2019-03-03T08:49:53.478Z,10.30
2019-03-03T08:52:53.487Z,10.30
2019-03-03T08:55:35.402Z,10.30
2019-03-03T08:58:15.676Z,10.30
2019-03-03T09:00:52.187Z,10.30
2019-03-03T09:03:45.204Z,10.40
2019-03-03T09:06:33.422Z,10.40
2019-03-03T09:09:09.768Z,10.50
2019-03-03T09:11:44.143Z,10.50
2019-03-03T09:14:38.253Z,10.50
2019-03-03T09:17:32.255Z,10.50
2019-03-03T09:20:11.335Z,10.50
2019-03-03T09:23:08.843Z,10.50
2019-03-03T09:25:55.392Z,10.60
2019-03-03T09:28:36.390Z,10.60
2019-03-03T09:31:11.840Z,10.60
2019-03-03T09:33:59.800Z,10.60
2019-03-03T09:36:50.677Z,10.60
2019-03-03T09:39:37.012Z,10.70
2019-03-03T09:42:12.782Z,10.70
2019-03-03T09:45:07.008Z,10.70
2019-03-03T09:47:57.963Z,10.70
2019-03-03T09:50:52.436Z,10.70
2019-03-03T09:53:55.653Z,10.80
2019-03-03T09:56:46.221Z,10.80
2019-03-03T09:59:49.239Z,10.80
2019-03-03T10:02:51.895Z,10.90
2019-03-03T10:05:38.259Z,11.00
2019-03-03T10:08:20.735Z,11.00
2019-03-03T10:11:03.886Z,11.00
2019-03-03T10:13:38.160Z,11.10
2019-03-03T10:16:23.189Z,11.20
2019-03-03T10:19:07.244Z,11.20
2019-03-03T10:21:42.706Z,11.30
2019-03-03T10:24:43.211Z,11.40
2019-03-03T10:27:30.020Z,11.40
2019-03-03T10:30:10.419Z,11.40
2019-03-03T10:32:49.896Z,11.40
2019-03-03T10:35:32.663Z,11.40
2019-03-03T10:38:23.660Z,11.40
2019-03-03T10:41:11.810Z,11.50
2019-03-03T10:44:09.004Z,11.50
2019-03-03T10:46:56.944Z,11.50
2019-03-03T10:49:37.855Z,11.50
2019-03-03T10:52:28.893Z,11.50
2019-03-03T10:55:09.315Z,11.50
2019-03-03T10:57:55.705Z,11.50
2019-03-03T11:00:39.643Z,11.50
2019-03-03T11:03:33.605Z,11.50
2019-03-03T11:06:11.932Z,11.60
2019-03-03T11:08:55.994Z,11.60
2019-03-03T11:11:41.320Z,11.60
2019-03-03T11:14:21.316Z,11.60
2019-03-03T11:17:05.307Z,11.70
2019-03-03T11:19:46.142Z,11.70
2019-03-03T11:22:40.220Z,11.80
2019-03-03T11:25:29.073Z,11.80
2019-03-03T11:28:23.920Z,11.70
2019-03-03T11:30:59.405Z,11.70
2019-03-03T11:33:45.736Z,11.80
2019-03-03T11:36:37.027Z,11.80
2019-03-03T11:39:25.935Z,11.80
2019-03-03T11:42:11.862Z,11.80
2019-03-03T11:44:54.107Z,11.80
2019-03-03T11:47:40.449Z,11.90
2019-03-03T11:50:21.886Z,12.00
2019-03-03T11:53:00.975Z,11.90
2019-03-03T11:55:47.563Z,12.00
2019-03-03T11:58:53.468Z,12.00
2019-03-03T12:01:32.822Z,12.00
2019-03-03T12:04:26.942Z,12.00
2019-03-03T12:07:12.024Z,12.10
2019-03-03T12:10:07.571Z,12.10
2019-03-03T12:12:58.202Z,12.00
2019-03-03T12:15:49.595Z,12.10
2019-03-03T12:18:29.332Z,12.10
2019-03-03T12:21:08.295Z,12.20
2019-03-03T12:23:54.634Z,12.20
2019-03-03T12:26:41.231Z,12.20
2019-03-03T12:29:22.997Z,12.30
2019-03-03T12:32:10.144Z,12.30
2019-03-03T12:34:59.317Z,12.30
2019-03-03T12:37:45.970Z,12.30
2019-03-03T12:40:32.640Z,12.40
2019-03-03T12:43:11.325Z,12.10
2019-03-03T12:45:57.633Z,12.10
2019-03-03T12:48:45.319Z,12.10
2019-03-03T12:51:22.995Z,12.10
2019-03-03T12:54:04.998Z,12.10
2019-03-03T12:56:50.009Z,12.00
2019-03-03T12:59:25.530Z,12.00
2019-03-03T13:02:06.779Z,12.10
2019-03-03T13:04:47.825Z,12.10
2019-03-03T13:07:34.346Z,12.00
2019-03-03T13:10:28.483Z,12.00
2019-03-03T13:13:25.126Z,12.10
2019-03-03T13:16:12.483Z,12.10
2019-03-03T13:19:06.476Z,12.10
2019-03-03T13:21:45.714Z,12.10
2019-03-03T13:24:29.907Z,12.00
2019-03-03T13:27:06.291Z,12.10
2019-03-03T13:29:59.520Z,12.10
2019-03-03T13:32:41.904Z,11.50
2019-03-03T13:35:26.906Z,12.10
2019-03-03T13:38:08.764Z,12.20
2019-03-03T13:40:48.650Z,12.20
2019-03-03T13:43:17.921Z,12.30
2019-03-03T13:45:46.889Z,12.40
2019-03-03T13:48:15.792Z,12.40
2019-03-03T13:50:44.733Z,12.30
2019-03-03T13:53:13.663Z,12.30
2019-03-03T13:55:42.884Z,12.30
2019-03-03T13:58:12.408Z,12.20
2019-03-03T14:00:41.603Z,12.20
2019-03-03T14:03:10.930Z,12.10
2019-03-03T14:05:39.907Z,12.10
2019-03-03T14:08:08.803Z,12.10
2019-03-03T14:10:37.951Z,12.10
2019-03-03T14:13:06.946Z,12.10
2019-03-03T14:15:36.108Z,12.00
2019-03-03T14:18:05.185Z,12.10
2019-03-03T14:20:34.079Z,12.00
2019-03-03T14:23:02.899Z,12.00
2019-03-03T14:25:32.125Z,12.00
2019-03-03T14:28:00.945Z,12.10
2019-03-03T14:30:29.995Z,12.10
2019-03-03T14:32:59.063Z,12.10
2019-03-03T14:35:27.920Z,12.10
2019-03-03T14:37:56.875Z,12.10
2019-03-03T14:40:25.992Z,12.10
2019-03-03T14:42:55.134Z,12.10
2019-03-03T14:45:23.995Z,12.10
2019-03-03T14:47:52.859Z,12.10
2019-03-03T14:50:22.059Z,12.00
2019-03-03T14:52:51.026Z,12.00
2019-03-03T14:55:20.318Z,12.10
2019-03-03T14:57:49.325Z,12.10
2019-03-03T15:00:22.995Z,12.20
2019-03-03T15:02:52.439Z,12.30
2019-03-03T15:05:21.298Z,12.40
2019-03-03T15:07:50.515Z,12.40
2019-03-03T15:10:20.024Z,12.60
2019-03-03T15:12:48.879Z,12.70
2019-03-03T15:15:18.339Z,12.60
2019-03-03T15:17:47.532Z,12.60
2019-03-03T15:20:16.839Z,12.50
2019-03-03T15:22:45.794Z,12.30
2019-03-03T15:25:14.698Z,12.30
2019-03-03T15:27:43.956Z,12.20
2019-03-03T15:30:15.463Z,12.20
2019-03-03T15:32:44.886Z,12.20
2019-03-03T15:35:14.100Z,12.10
2019-03-03T15:37:43.059Z,12.00
2019-03-03T15:40:12.361Z,12.00
2019-03-03T15:42:41.819Z,12.00
2019-03-03T15:45:13.082Z,12.00
2019-03-03T15:47:42.057Z,11.90
2019-03-03T15:50:11.264Z,11.90
2019-03-03T15:52:40.178Z,11.90
2019-03-03T15:55:10.618Z,11.90
2019-03-03T15:57:39.539Z,11.80
2019-03-03T16:00:12.646Z,11.80
2019-03-03T16:02:41.645Z,11.90
2019-03-03T16:05:10.929Z,11.90
2019-03-03T16:07:40.018Z,11.80
2019-03-03T16:10:10.137Z,11.80
2019-03-03T16:12:38.976Z,11.80
2019-03-03T16:15:09.474Z,11.80
2019-03-03T16:17:39.597Z,11.90
2019-03-03T16:20:16.304Z,11.80
2019-03-03T16:22:45.418Z,11.90
2019-03-03T16:25:15.404Z,11.90
2019-03-03T16:27:44.406Z,11.90
2019-03-03T16:30:15.246Z,11.90
2019-03-03T16:32:44.457Z,11.90
2019-03-03T16:35:13.927Z,11.90
2019-03-03T16:37:43.240Z,12.00
2019-03-03T16:40:15.691Z,11.90
2019-03-03T16:42:44.979Z,11.90
2019-03-03T16:45:15.091Z,11.90
2019-03-03T16:47:44.094Z,11.90
2019-03-03T16:50:14.675Z,11.90
2019-03-03T16:52:43.962Z,11.90
2019-03-03T16:55:16.717Z,11.90
2019-03-03T16:57:45.681Z,11.90
2019-03-03T17:00:16.615Z,11.90
2019-03-03T17:02:46.458Z,11.80
2019-03-03T17:05:16.316Z,11.90
2019-03-03T17:07:45.472Z,11.90
2019-03-03T17:10:14.946Z,11.90
2019-03-03T17:12:44.342Z,11.90
2019-03-03T17:15:18.543Z,11.90
2019-03-03T17:17:47.469Z,12.00
2019-03-03T17:20:17.623Z,12.00
2019-03-03T17:22:46.654Z,12.00
2019-03-03T17:25:17.235Z,12.00
2019-03-03T17:27:47.020Z,12.00
2019-03-03T17:30:17.790Z,12.00
2019-03-03T17:32:46.717Z,12.00
2019-03-03T17:35:36.132Z,11.90
2019-03-03T17:38:05.046Z,12.00
2019-03-03T17:41:27.305Z,12.00
2019-03-03T17:43:56.173Z,12.00
2019-03-03T17:46:25.399Z,12.00
2019-03-03T17:48:54.202Z,12.00
2019-03-03T17:51:23.411Z,12.00
2019-03-03T17:53:52.291Z,12.00
2019-03-03T17:56:23.515Z,12.00
2019-03-03T17:58:52.472Z,12.00
2019-03-03T18:01:21.263Z,12.00
2019-03-03T18:03:51.557Z,12.00
2019-03-03T18:06:21.418Z,12.00
2019-03-03T18:08:50.842Z,12.00
2019-03-03T18:11:19.785Z,12.00
2019-03-03T18:13:48.935Z,12.00
2019-03-03T18:16:18.461Z,12.00
2019-03-03T18:18:48.256Z,12.00
2019-03-03T18:21:17.808Z,12.00
2019-03-03T18:23:46.672Z,12.00
2019-03-03T18:26:15.723Z,12.00
2019-03-03T18:28:44.885Z,12.00
2019-03-03T18:31:13.942Z,12.00
2019-03-03T18:33:42.867Z,12.00
2019-03-03T18:36:11.935Z,12.00
2019-03-03T18:38:41.538Z,12.00
2019-03-03T18:41:10.773Z,12.00
2019-03-03T18:43:40.164Z,12.00
2019-03-03T18:46:09.104Z,12.00
2019-03-03T18:48:38.084Z,12.00
2019-03-03T18:51:07.100Z,12.00
2019-03-03T18:53:35.997Z,12.00
2019-03-03T18:56:08.979Z,12.00
2019-03-03T18:58:38.256Z,12.00
2019-03-03T19:01:07.113Z,12.00
2019-03-03T19:03:36.158Z,12.00
2019-03-03T19:06:05.091Z,12.00
2019-03-03T19:08:33.987Z,12.00
2019-03-03T19:11:02.899Z,12.10
2019-03-03T19:13:31.771Z,12.10
2019-03-03T19:16:00.722Z,12.00
2019-03-03T19:18:29.765Z,12.10
2019-03-03T19:20:58.866Z,12.10
2019-03-03T19:23:27.758Z,12.10
2019-03-03T19:25:56.557Z,12.10
2019-03-03T19:28:25.500Z,12.10
2019-03-03T19:30:54.428Z,12.10
2019-03-03T19:33:27.468Z,12.10
2019-03-03T19:35:56.650Z,12.10
2019-03-03T19:38:25.519Z,12.10
2019-03-03T19:40:54.395Z,12.10
2019-03-03T19:43:23.440Z,12.10
2019-03-03T19:45:52.599Z,12.10
2019-03-03T19:48:21.535Z,12.10
2019-03-03T19:50:50.491Z,12.00
2019-03-03T19:53:19.370Z,12.00
2019-03-03T19:55:48.288Z,12.00
2019-03-03T19:58:17.485Z,12.00
2019-03-03T20:00:46.610Z,12.00
2019-03-03T20:03:15.680Z,12.10
2019-03-03T20:05:44.563Z,12.10
2019-03-03T20:08:13.685Z,12.10
2019-03-03T20:10:43.128Z,12.10
2019-03-03T20:13:12.402Z,12.10
2019-03-03T20:15:41.614Z,12.10
2019-03-03T20:18:10.643Z,12.10
2019-03-03T20:20:39.758Z,12.10
2019-03-03T20:23:09.315Z,12.10
2019-03-03T20:25:38.186Z,12.10
2019-03-03T20:28:07.123Z,12.10
2019-03-03T20:30:36.095Z,12.10
2019-03-03T20:33:05.703Z,12.10
2019-03-03T20:35:34.857Z,12.10
2019-03-03T20:38:03.842Z,12.10
2019-03-03T20:40:33.012Z,12.10
2019-03-03T20:43:02.121Z,12.10
2019-03-03T20:45:31.095Z,12.10
2019-03-03T20:48:00.981Z,12.10
2019-03-03T20:50:29.965Z,12.10
2019-03-03T20:52:58.786Z,12.10
2019-03-03T20:55:27.744Z,12.10
2019-03-03T20:57:56.692Z,12.00
2019-03-03T21:00:26.525Z,12.00
2019-03-03T21:02:56.119Z,12.00
2019-03-03T21:05:25.423Z,12.00
2019-03-03T21:07:54.351Z,12.00
2019-03-03T21:10:23.479Z,12.00
2019-03-03T21:12:52.495Z,12.00
2019-03-03T21:15:21.685Z,12.00
2019-03-03T21:17:50.877Z,12.00
2019-03-03T21:20:19.838Z,12.00
2019-03-03T21:22:48.734Z,12.00
2019-03-03T21:25:17.911Z,12.00
2019-03-03T21:27:47.190Z,12.00
2019-03-03T21:30:21.325Z,12.00
2019-03-03T21:32:50.667Z,12.10
2019-03-03T21:35:19.561Z,12.10
2019-03-03T21:37:48.535Z,12.00
2019-03-03T21:40:18.579Z,12.00
2019-03-03T21:42:47.749Z,12.00
2019-03-03T21:45:17.700Z,12.10
2019-03-03T21:47:46.538Z,12.10
2019-03-03T21:50:17.142Z,12.10
2019-03-03T21:52:46.232Z,12.10
2019-03-03T21:55:15.631Z,12.10
2019-03-03T21:57:44.799Z,12.10
2019-03-03T22:00:34.943Z,12.10
2019-03-03T22:03:04.011Z,12.10
2019-03-03T22:05:33.162Z,12.10
2019-03-03T22:08:02.131Z,12.10
2019-03-03T22:10:32.236Z,12.00
2019-03-03T22:13:02.557Z,12.00
2019-03-03T22:15:31.590Z,12.00
2019-03-03T22:18:00.720Z,11.90
2019-03-03T22:20:30.203Z,11.90
2019-03-03T22:23:03.261Z,11.90
2019-03-03T22:25:32.440Z,11.80
2019-03-03T22:28:01.520Z,11.80
2019-03-03T22:30:30.578Z,11.80
2019-03-03T22:32:59.780Z,11.70
2019-03-03T22:35:28.636Z,11.70
2019-03-03T22:37:57.573Z,11.70
2019-03-03T22:40:26.513Z,11.70
2019-03-03T22:42:55.953Z,11.60
2019-03-03T22:45:24.962Z,11.60
2019-03-03T22:47:54.282Z,11.50
2019-03-03T22:50:23.150Z,11.50
2019-03-03T22:52:52.002Z,11.50
2019-03-03T22:55:21.314Z,11.40
2019-03-03T22:57:50.576Z,11.40
2019-03-03T23:01:04.570Z,11.40
2019-03-03T23:03:37.262Z,11.30
2019-03-03T23:06:25.771Z,11.30
2019-03-03T23:09:54.951Z,11.20
2019-03-03T23:13:14.118Z,11.20
2019-03-03T23:16:51.395Z,11.10
2019-03-03T23:19:58.336Z,11.10
2019-03-03T23:23:14.637Z,11.00
2019-03-03T23:25:48.917Z,11.00
2019-03-03T23:28:18.859Z,11.00
2019-03-03T23:30:47.951Z,11.10
2019-03-03T23:33:17.367Z,11.10
2019-03-03T23:35:46.850Z,11.10
2019-03-03T23:38:15.728Z,11.10
2019-03-03T23:40:44.593Z,11.10
2019-03-03T23:43:13.981Z,11.10
2019-03-03T23:45:42.938Z,11.10
2019-03-03T23:48:11.902Z,11.20
2019-03-03T23:50:40.707Z,11.20
2019-03-03T23:53:10.043Z,11.20
2019-03-03T23:55:39.494Z,11.20
2019-03-03T23:58:08.667Z,11.20
